createdAt,value
2022-12-15T00:00:47.403Z,99270.53
2022-12-15T00:04:08.459Z,99267.19
2022-12-15T00:07:28.954Z,99274.28
2022-12-15T00:10:50.094Z,99270.09
2022-12-15T00:14:10.728Z,99286.25
2022-12-15T00:17:31.801Z,99294.75
2022-12-15T00:20:53.554Z,99288.62
2022-12-15T00:24:14.473Z,99295.34
2022-12-15T00:27:35.197Z,99307.41
2022-12-15T00:31:02.125Z,99299.59
2022-12-15T00:34:23.489Z,99301.41
2022-12-15T00:37:44.563Z,99300.53
2022-12-15T00:40:46.687Z,99304.72
2022-12-15T00:43:49.749Z,99301.78
2022-12-15T00:46:54.870Z,99309.88
2022-12-15T00:50:16.089Z,99314.41
2022-12-15T00:53:40.799Z,99314.34
2022-12-15T00:57:01.724Z,99302.75
2022-12-15T01:00:24.211Z,99292.69
2022-12-15T01:03:45.393Z,99297.72
2022-12-15T01:07:06.320Z,99293.78
2022-12-15T01:10:27.765Z,99294.50
2022-12-15T01:13:50.015Z,99281.62
2022-12-15T01:17:11.330Z,99303.94
2022-12-15T01:20:15.061Z,99304.06
2022-12-15T01:23:17.913Z,99307.41
2022-12-15T01:26:20.345Z,99313.84
2022-12-15T01:29:22.857Z,99313.63
2022-12-15T01:32:25.096Z,99307.63
2022-12-15T01:35:27.765Z,99301.00
2022-12-15T01:38:30.138Z,99305.56
2022-12-15T01:41:32.545Z,99307.00
2022-12-15T01:44:36.790Z,99296.09
2022-12-15T01:47:39.374Z,99306.09
2022-12-15T01:50:55.887Z,99299.97
2022-12-15T01:54:20.475Z,99304.34
2022-12-15T01:57:27.114Z,99298.31
2022-12-15T02:00:30.819Z,99295.47
2022-12-15T02:03:34.088Z,99297.56
2022-12-15T02:06:37.302Z,99295.91
2022-12-15T02:09:40.788Z,99306.66
2022-12-15T02:13:19.086Z,99307.16
2022-12-15T02:16:27.931Z,99302.66
2022-12-15T02:19:48.808Z,99296.09
2022-12-15T02:23:16.138Z,99305.69
2022-12-15T02:26:56.412Z,99318.06
2022-12-15T02:30:19.616Z,99322.97
2022-12-15T02:33:30.431Z,99303.28
2022-12-15T02:36:37.003Z,99313.03
2022-12-15T02:39:39.490Z,99307.56
2022-12-15T02:42:52.418Z,99303.66
2022-12-15T02:46:01.436Z,99302.88
2022-12-15T02:49:23.089Z,99308.97
2022-12-15T02:52:37.744Z,99314.16
2022-12-15T02:55:52.172Z,99329.31
2022-12-15T02:59:03.576Z,99322.47
2022-12-15T03:02:07.716Z,99312.94
2022-12-15T03:05:13.108Z,99311.12
2022-12-15T03:08:15.235Z,99307.34
2022-12-15T03:11:17.723Z,99315.53
2022-12-15T03:14:20.635Z,99321.25
2022-12-15T03:17:23.098Z,99319.47
2022-12-15T03:20:25.188Z,99320.56
2022-12-15T03:23:27.738Z,99321.13
2022-12-15T03:26:30.065Z,99329.47
2022-12-15T03:29:32.576Z,99326.88
2022-12-15T03:32:34.669Z,99326.94
2022-12-15T03:35:37.234Z,99327.16
2022-12-15T03:38:39.400Z,99338.37
2022-12-15T03:41:41.877Z,99336.31
2022-12-15T03:44:44.009Z,99336.19
2022-12-15T03:47:46.944Z,99327.34
2022-12-15T03:50:50.088Z,99328.38
2022-12-15T03:53:53.656Z,99335.47
2022-12-15T03:56:55.749Z,99344.94
2022-12-15T03:59:58.199Z,99342.44
2022-12-15T04:03:00.649Z,99341.69
2022-12-15T04:06:03.280Z,99346.84
2022-12-15T04:09:05.547Z,99354.66
2022-12-15T04:12:12.567Z,99349.81
2022-12-15T04:15:15.437Z,99358.53
2022-12-15T04:18:17.850Z,99357.47
2022-12-15T04:21:20.011Z,99367.91
2022-12-15T04:24:41.028Z,99374.94
2022-12-15T04:28:02.022Z,99381.50
2022-12-15T04:31:32.972Z,99386.59
2022-12-15T04:34:54.289Z,99385.44
2022-12-15T04:38:15.684Z,99385.00
2022-12-15T04:41:39.041Z,99399.28
2022-12-15T04:45:00.358Z,99396.50
2022-12-15T04:48:21.869Z,99403.94
2022-12-15T04:51:42.738Z,99414.28
2022-12-15T04:55:03.159Z,99438.09
2022-12-15T04:58:28.268Z,99437.31
2022-12-15T05:01:48.950Z,99442.84
2022-12-15T05:05:12.263Z,99435.88
2022-12-15T05:08:33.020Z,99432.59
2022-12-15T05:11:54.003Z,99441.41
2022-12-15T05:15:14.975Z,99462.69
2022-12-15T05:18:36.394Z,99457.69
2022-12-15T05:21:57.137Z,99466.19
2022-12-15T05:25:17.959Z,99473.72
2022-12-15T05:28:38.911Z,99475.22
2022-12-15T05:31:54.852Z,99457.44
2022-12-15T05:34:57.060Z,99466.87
2022-12-15T05:37:59.512Z,99486.44
2022-12-15T05:41:01.737Z,99485.56
2022-12-15T05:44:04.574Z,99489.69
2022-12-15T05:47:08.200Z,99481.81
2022-12-15T05:50:10.678Z,99482.91
2022-12-15T05:53:12.821Z,99493.44
2022-12-15T05:56:15.570Z,99501.78
2022-12-15T05:59:19.201Z,99512.06
2022-12-15T06:02:22.111Z,99520.69
2022-12-15T06:05:24.654Z,99527.38
2022-12-15T06:08:31.013Z,99534.13
2022-12-15T06:11:33.527Z,99535.56
2022-12-15T06:14:36.455Z,99551.31
2022-12-15T06:17:39.580Z,99562.56
2022-12-15T06:20:41.757Z,99561.75
2022-12-15T06:23:45.115Z,99557.94
2022-12-15T06:26:49.861Z,99566.84
2022-12-15T06:29:53.101Z,99563.12
2022-12-15T06:32:55.309Z,99580.06
2022-12-15T06:36:01.275Z,99580.97
2022-12-15T06:39:05.566Z,99576.44
2022-12-15T06:42:08.067Z,99567.50
2022-12-15T06:45:10.541Z,99568.78
2022-12-15T06:48:12.985Z,99571.19
2022-12-15T06:51:18.139Z,99582.03
2022-12-15T06:54:20.576Z,99590.19
2022-12-15T06:57:22.767Z,99592.66
2022-12-15T07:00:25.229Z,99606.41
2022-12-15T07:03:27.689Z,99608.56
2022-12-15T07:06:36.773Z,99605.72
2022-12-15T07:09:39.303Z,99605.78
2022-12-15T07:12:41.738Z,99627.66
2022-12-15T07:15:46.570Z,99647.34
2022-12-15T07:18:49.347Z,99650.50
2022-12-15T07:21:52.855Z,99649.97
2022-12-15T07:24:55.713Z,99644.53
2022-12-15T07:27:57.963Z,99646.81
2022-12-15T07:31:06.843Z,99654.12
2022-12-15T07:34:09.089Z,99647.97
2022-12-15T07:37:11.606Z,99648.09
2022-12-15T07:40:13.771Z,99652.63
2022-12-15T07:43:16.590Z,99667.91
2022-12-15T07:46:19.495Z,99665.22
2022-12-15T07:49:22.113Z,99664.47
2022-12-15T07:52:24.434Z,99668.81
2022-12-15T07:55:50.004Z,99666.63
2022-12-15T07:58:49.719Z,99688.34
2022-12-15T08:01:53.666Z,99682.91
2022-12-15T08:04:56.145Z,99674.34
2022-12-15T08:07:58.742Z,99683.47
2022-12-15T08:11:13.574Z,99679.03
2022-12-15T08:14:17.870Z,99687.78
2022-12-15T08:17:21.438Z,99691.22
2022-12-15T08:20:24.935Z,99694.72
2022-12-15T08:23:29.154Z,99706.22
2022-12-15T08:26:31.848Z,99711.78
2022-12-15T08:29:51.906Z,99712.88
2022-12-15T08:32:54.660Z,99718.31
2022-12-15T08:36:03.079Z,99722.38
2022-12-15T08:39:05.410Z,99724.38
2022-12-15T08:42:07.776Z,99726.25
2022-12-15T08:45:11.333Z,99724.38
2022-12-15T08:48:14.031Z,99734.19
2022-12-15T08:51:17.349Z,99723.69
2022-12-15T08:54:20.597Z,99728.44
2022-12-15T08:57:22.767Z,99745.44
2022-12-15T09:00:25.302Z,99746.84
2022-12-15T09:03:27.795Z,99753.88
2022-12-15T09:06:33.477Z,99763.00
2022-12-15T09:09:35.650Z,99756.28
2022-12-15T09:12:38.239Z,99742.22
2022-12-15T09:16:08.483Z,99734.00
2022-12-15T09:19:06.054Z,99742.13
2022-12-15T09:22:08.687Z,99736.94
2022-12-15T09:25:11.143Z,99750.19
2022-12-15T09:28:14.592Z,99739.50
2022-12-15T09:31:22.747Z,99735.91
2022-12-15T09:34:25.050Z,99738.09
2022-12-15T09:37:27.587Z,99730.56
2022-12-15T09:40:30.084Z,99727.19
2022-12-15T09:43:35.161Z,99734.81
2022-12-15T09:46:50.619Z,99736.63
2022-12-15T09:50:05.618Z,99747.78
2022-12-15T09:53:45.550Z,99736.00
2022-12-15T09:56:42.910Z,99736.84
2022-12-15T09:59:55.741Z,99747.47
2022-12-15T10:03:31.386Z,99744.34
2022-12-15T10:06:50.794Z,99755.72
2022-12-15T10:09:53.173Z,99767.59
2022-12-15T10:13:02.451Z,99763.72
2022-12-15T10:16:31.532Z,99760.78
2022-12-15T10:19:51.957Z,99747.81
2022-12-15T10:22:57.953Z,99749.59
2022-12-15T10:26:20.787Z,99749.84
2022-12-15T10:29:33.093Z,99748.44
2022-12-15T10:33:03.492Z,99757.06
2022-12-15T10:36:11.635Z,99740.72
2022-12-15T10:39:16.216Z,99742.75
2022-12-15T10:42:22.727Z,99747.16
2022-12-15T10:45:35.713Z,99735.13
2022-12-15T10:48:37.899Z,99738.19
2022-12-15T10:51:47.153Z,99723.28
2022-12-15T10:54:52.038Z,99732.91
2022-12-15T10:58:03.090Z,99737.66
2022-12-15T11:01:19.250Z,99735.78
2022-12-15T11:04:32.592Z,99731.63
2022-12-15T11:07:36.733Z,99738.66
2022-12-15T11:11:08.933Z,99735.66
2022-12-15T11:14:24.187Z,99749.16
2022-12-15T11:17:40.473Z,99748.19
2022-12-15T11:21:11.592Z,99733.53
2022-12-15T11:24:20.273Z,99742.50
2022-12-15T11:27:43.292Z,99749.50
2022-12-15T11:30:54.140Z,99726.44
2022-12-15T11:33:57.740Z,99737.81
2022-12-15T11:37:34.023Z,99737.38
2022-12-15T11:40:39.848Z,99725.50
2022-12-15T11:44:18.482Z,99726.91
2022-12-15T11:47:27.893Z,99739.75
2022-12-15T11:50:51.104Z,99760.00
2022-12-15T11:53:56.490Z,99759.09
2022-12-15T11:57:09.784Z,99763.75
2022-12-15T12:00:18.363Z,99761.22
2022-12-15T12:03:48.868Z,99761.12
2022-12-15T12:07:08.752Z,99763.28
2022-12-15T12:10:29.537Z,99766.97
2022-12-15T12:13:44.197Z,99755.09
2022-12-15T12:17:03.608Z,99748.66
2022-12-15T12:20:38.787Z,99758.09
2022-12-15T12:23:47.225Z,99744.91
2022-12-15T12:26:58.725Z,99750.09
2022-12-15T12:30:18.130Z,99743.28
2022-12-15T12:33:36.822Z,99741.66
2022-12-15T12:36:42.107Z,99738.47
2022-12-15T12:39:46.953Z,99740.06
2022-12-15T12:42:57.431Z,99742.78
2022-12-15T12:46:13.986Z,99748.72
2022-12-15T12:49:26.803Z,99736.94
2022-12-15T12:52:38.015Z,99743.84
2022-12-15T12:55:43.742Z,99738.62
2022-12-15T12:58:48.568Z,99735.44
2022-12-15T13:01:53.003Z,99753.19
2022-12-15T13:05:00.085Z,99749.56
2022-12-15T13:08:06.308Z,99758.19
2022-12-15T13:11:58.383Z,99757.50
2022-12-15T13:15:10.918Z,99778.31
2022-12-15T13:18:17.725Z,99772.00
2022-12-15T13:21:51.259Z,99772.78
2022-12-15T13:24:56.387Z,99770.78
2022-12-15T13:28:01.142Z,99776.25
2022-12-15T13:31:27.893Z,99767.78
2022-12-15T13:34:38.934Z,99765.69
2022-12-15T13:37:46.748Z,99770.78
2022-12-15T13:40:54.019Z,99772.87
2022-12-15T13:43:58.528Z,99784.50
2022-12-15T13:47:19.689Z,99784.84
2022-12-15T13:50:38.570Z,99781.03
2022-12-15T13:53:51.458Z,99777.16
2022-12-15T13:57:15.075Z,99778.44
2022-12-15T14:00:21.139Z,99785.31
2022-12-15T14:03:24.757Z,99786.63
2022-12-15T14:06:36.255Z,99780.00
2022-12-15T14:09:42.085Z,99776.34
2022-12-15T14:12:45.946Z,99761.06
2022-12-15T14:16:16.655Z,99760.97
2022-12-15T14:19:19.258Z,99762.31
2022-12-15T14:22:28.241Z,99774.31
2022-12-15T14:25:31.219Z,99776.62
2022-12-15T14:28:39.778Z,99764.28
2022-12-15T14:31:46.947Z,99762.44
2022-12-15T14:34:51.069Z,99758.09
2022-12-15T14:37:57.280Z,99757.06
2022-12-15T14:41:03.446Z,99759.00
2022-12-15T14:44:37.041Z,99769.25
2022-12-15T14:47:40.520Z,99774.56
2022-12-15T14:50:47.354Z,99767.13
2022-12-15T14:57:20.186Z,99770.31
2022-12-15T15:00:35.674Z,99777.50
2022-12-15T15:03:40.888Z,99797.50
2022-12-15T15:06:47.707Z,99786.34
2022-12-15T15:09:53.168Z,99778.84
2022-12-15T15:12:58.487Z,99796.41
2022-12-15T15:16:06.297Z,99787.69
2022-12-15T15:19:19.462Z,99803.53
2022-12-15T15:22:40.915Z,99807.38
2022-12-15T15:25:56.584Z,99791.91
2022-12-15T15:28:59.013Z,99779.72
2022-12-15T15:32:16.866Z,99783.56
2022-12-15T15:35:20.041Z,99784.34
2022-12-15T15:38:28.874Z,99781.88
2022-12-15T15:41:33.001Z,99775.06
2022-12-15T15:44:35.874Z,99772.50
2022-12-15T15:47:38.009Z,99770.38
2022-12-15T15:50:40.740Z,99773.37
2022-12-15T15:53:43.077Z,99779.81
2022-12-15T15:56:45.629Z,99765.28
2022-12-15T15:59:47.807Z,99760.94
2022-12-15T16:02:51.162Z,99761.44
2022-12-15T16:05:53.785Z,99757.25
2022-12-15T16:08:58.309Z,99761.34
2022-12-15T16:12:00.809Z,99767.44
2022-12-15T16:15:06.127Z,99771.28
2022-12-15T16:18:08.812Z,99771.31
2022-12-15T16:21:16.697Z,99769.53
2022-12-15T16:24:19.506Z,99768.00
2022-12-15T16:27:22.311Z,99767.38
2022-12-15T16:30:26.557Z,99761.97
2022-12-15T16:33:28.877Z,99752.78
2022-12-15T16:36:32.565Z,99767.88
2022-12-15T16:39:35.456Z,99763.84
2022-12-15T16:42:38.132Z,99770.72
2022-12-15T16:45:44.685Z,99786.28
2022-12-15T16:48:47.339Z,99782.56
2022-12-15T16:51:52.424Z,99776.81
2022-12-15T16:54:54.955Z,99780.25
2022-12-15T16:58:05.433Z,99789.44
2022-12-15T17:01:10.364Z,99782.47
2022-12-15T17:04:14.164Z,99798.34
2022-12-15T17:07:20.445Z,99794.09
2022-12-15T17:10:26.385Z,99802.06
2022-12-15T17:13:39.056Z,99815.03
2022-12-15T17:16:44.146Z,99799.41
2022-12-15T17:23:16.011Z,99795.06
2022-12-15T17:26:29.052Z,99803.41
2022-12-15T17:29:33.184Z,99809.56
2022-12-15T17:32:35.636Z,99810.75
2022-12-15T17:35:37.750Z,99807.88
2022-12-15T17:38:40.429Z,99795.78
2022-12-15T17:41:59.262Z,99792.47
2022-12-15T17:45:06.551Z,99791.00
2022-12-15T17:48:09.018Z,99802.31
2022-12-15T17:51:16.575Z,99793.56
2022-12-15T17:54:19.675Z,99797.41
2022-12-15T17:57:22.089Z,99796.13
2022-12-15T18:00:27.630Z,99788.94
2022-12-15T18:03:31.231Z,99791.09
2022-12-15T18:06:33.708Z,99792.91
2022-12-15T18:09:36.122Z,99792.63
2022-12-15T18:12:38.482Z,99784.19
2022-12-15T18:15:41.028Z,99778.25
2022-12-15T18:18:43.277Z,99786.91
2022-12-15T18:21:45.841Z,99786.44
2022-12-15T18:24:49.641Z,99781.16
2022-12-15T18:27:53.869Z,99785.44
2022-12-15T18:31:02.961Z,99783.06
2022-12-15T18:34:12.625Z,99785.25
2022-12-15T18:37:19.543Z,99784.97
2022-12-15T18:40:27.122Z,99787.19
2022-12-15T18:43:34.781Z,99790.88
2022-12-15T18:46:37.510Z,99805.41
2022-12-15T18:49:39.664Z,99795.78
2022-12-15T18:52:42.555Z,99794.97
2022-12-15T18:55:46.529Z,99785.38
2022-12-15T18:58:48.943Z,99774.13
2022-12-15T19:01:51.165Z,99772.66
2022-12-15T19:04:53.716Z,99775.38
2022-12-15T19:08:09.983Z,99765.22
2022-12-15T19:11:18.348Z,99759.78
2022-12-15T19:14:39.399Z,99759.84
2022-12-15T19:18:00.539Z,99763.38
2022-12-15T19:21:48.053Z,99762.28
2022-12-15T19:24:56.114Z,99770.63
2022-12-15T19:28:00.245Z,99780.25
2022-12-15T19:31:02.941Z,99774.81
2022-12-15T19:34:05.156Z,99764.94
2022-12-15T19:37:15.917Z,99756.72
2022-12-15T19:40:25.028Z,99760.84
2022-12-15T19:43:27.661Z,99776.78
2022-12-15T19:46:29.762Z,99765.28
2022-12-15T19:49:32.258Z,99765.53
2022-12-15T19:52:34.442Z,99767.75
2022-12-15T19:55:36.965Z,99755.44
2022-12-15T19:58:39.481Z,99743.63
2022-12-15T20:01:42.113Z,99726.59
2022-12-15T20:04:45.490Z,99727.13
2022-12-15T20:07:49.063Z,99718.72
2022-12-15T20:10:53.920Z,99710.63
2022-12-15T20:13:56.889Z,99698.72
2022-12-15T20:16:59.326Z,99695.87
2022-12-15T20:20:01.636Z,99690.81
2022-12-15T20:23:14.325Z,99685.50
2022-12-15T20:26:17.262Z,99684.19
2022-12-15T20:29:25.990Z,99692.38
2022-12-15T20:32:28.146Z,99690.22
2022-12-15T20:35:33.213Z,99685.09
2022-12-15T20:38:36.061Z,99694.44
2022-12-15T20:41:38.727Z,99691.72
2022-12-15T20:44:41.280Z,99675.09
2022-12-15T20:47:46.283Z,99672.09
2022-12-15T20:50:49.342Z,99695.59
2022-12-15T20:53:53.569Z,99687.34
2022-12-15T20:56:57.878Z,99665.69
2022-12-15T21:00:00.323Z,99648.09
2022-12-15T21:03:02.916Z,99650.28
2022-12-15T21:06:07.650Z,99665.56
2022-12-15T21:09:13.240Z,99671.94
2022-12-15T21:12:18.478Z,99679.22
2022-12-15T21:15:23.192Z,99678.53
2022-12-15T21:19:17.997Z,99668.41
2022-12-15T21:21:52.060Z,99668.78
2022-12-15T21:24:57.445Z,99663.13
2022-12-15T21:27:59.684Z,99661.41
2022-12-15T21:31:02.234Z,99667.09
2022-12-15T21:34:04.453Z,99658.87
2022-12-15T21:37:22.617Z,99652.13
2022-12-15T21:40:28.540Z,99643.50
2022-12-15T21:43:33.556Z,99646.28
2022-12-15T21:46:35.697Z,99640.09
2022-12-15T21:49:38.169Z,99634.34
2022-12-15T21:52:40.744Z,99629.44
2022-12-15T21:55:46.235Z,99620.37
2022-12-15T21:58:52.712Z,99621.28
2022-12-15T22:02:00.277Z,99615.53
2022-12-15T22:05:03.033Z,99609.88
2022-12-15T22:08:17.386Z,99615.72
2022-12-15T22:11:25.943Z,99616.38
2022-12-15T22:14:32.048Z,99604.22
2022-12-15T22:17:34.489Z,99604.78
2022-12-15T22:20:37.598Z,99606.94
2022-12-15T22:23:40.216Z,99603.41
2022-12-15T22:26:43.053Z,99599.03
2022-12-15T22:29:46.233Z,99592.31
2022-12-15T22:32:48.933Z,99581.37
2022-12-15T22:35:53.312Z,99584.63
2022-12-15T22:38:57.069Z,99588.13
2022-12-15T22:42:01.005Z,99578.31
2022-12-15T22:45:04.645Z,99579.84
2022-12-15T22:48:07.137Z,99585.19
2022-12-15T22:51:12.994Z,99570.31
2022-12-15T22:54:20.883Z,99562.38
2022-12-15T22:57:26.293Z,99559.97
2022-12-15T23:00:28.694Z,99564.16
2022-12-15T23:03:31.289Z,99565.28
2022-12-15T23:06:34.085Z,99568.81
2022-12-15T23:09:36.331Z,99566.41
2022-12-15T23:12:38.762Z,99551.09
2022-12-15T23:15:59.670Z,99542.75
2022-12-15T23:19:02.225Z,99551.22
2022-12-15T23:22:04.291Z,99538.19
2022-12-15T23:25:07.432Z,99543.50
2022-12-15T23:28:10.333Z,99536.75
2022-12-15T23:31:12.815Z,99527.50
2022-12-15T23:34:15.331Z,99524.06
2022-12-15T23:37:17.870Z,99523.84
2022-12-15T23:40:21.995Z,99520.47
2022-12-15T23:43:26.804Z,99515.38
2022-12-15T23:46:29.123Z,99504.87
2022-12-15T23:49:31.650Z,99502.44
2022-12-15T23:52:33.807Z,99505.09
2022-12-15T23:55:36.787Z,99511.13
2022-12-15T23:58:40.883Z,99509.28
